sensor_id;sensor_type;location;lat;lon;timestamp;P1;durP1;ratioP1;P2;durP2;ratioP2
11439;SDS011;5776;51.814;4.510;2023-02-26T00:00:12;6.27;;;1.83;;
11439;SDS011;5776;51.814;4.510;2023-02-26T00:02:40;5.03;;;1.40;;
11439;SDS011;5776;51.814;4.510;2023-02-26T00:05:07;4.13;;;1.67;;
11439;SDS011;5776;51.814;4.510;2023-02-26T00:07:33;5.00;;;1.53;;
11439;SDS011;5776;51.814;4.510;2023-02-26T00:10:00;6.10;;;2.00;;
11439;SDS011;5776;51.814;4.510;2023-02-26T00:12:27;6.63;;;1.87;;
11439;SDS011;5776;51.814;4.510;2023-02-26T00:14:54;4.97;;;1.77;;
11439;SDS011;5776;51.814;4.510;2023-02-26T00:20:09;5.30;;;1.40;;
11439;SDS011;5776;51.814;4.510;2023-02-26T00:22:37;3.80;;;1.77;;
11439;SDS011;5776;51.814;4.510;2023-02-26T00:25:04;3.07;;;1.37;;
11439;SDS011;5776;51.814;4.510;2023-02-26T00:27:30;8.40;;;1.80;;
11439;SDS011;5776;51.814;4.510;2023-02-26T00:29:56;4.07;;;1.43;;
11439;SDS011;5776;51.814;4.510;2023-02-26T00:32:22;3.57;;;1.33;;
11439;SDS011;5776;51.814;4.510;2023-02-26T00:34:49;4.40;;;1.33;;
11439;SDS011;5776;51.814;4.510;2023-02-26T00:42:55;4.77;;;1.50;;
11439;SDS011;5776;51.814;4.510;2023-02-26T00:45:22;7.40;;;1.80;;
11439;SDS011;5776;51.814;4.510;2023-02-26T00:47:49;5.37;;;1.60;;
11439;SDS011;5776;51.814;4.510;2023-02-26T00:50:21;6.47;;;1.47;;
11439;SDS011;5776;51.814;4.510;2023-02-26T00:55:22;6.50;;;1.60;;
11439;SDS011;5776;51.814;4.510;2023-02-26T00:57:48;5.30;;;1.47;;
11439;SDS011;5776;51.814;4.510;2023-02-26T01:00:14;5.07;;;1.40;;
11439;SDS011;5776;51.814;4.510;2023-02-26T01:02:41;4.00;;;1.40;;
11439;SDS011;5776;51.814;4.510;2023-02-26T01:05:08;4.67;;;1.37;;
11439;SDS011;5776;51.814;4.510;2023-02-26T01:10:34;4.23;;;1.43;;
11439;SDS011;5776;51.814;4.510;2023-02-26T01:13:01;9.83;;;1.70;;
11439;SDS011;5776;51.814;4.510;2023-02-26T01:15:27;9.57;;;1.50;;
11439;SDS011;5776;51.814;4.510;2023-02-26T01:20:20;7.80;;;1.87;;
11439;SDS011;5776;51.814;4.510;2023-02-26T01:22:53;3.77;;;1.20;;
11439;SDS011;5776;51.814;4.510;2023-02-26T01:25:28;7.33;;;1.87;;
11439;SDS011;5776;51.814;4.510;2023-02-26T01:27:59;5.03;;;1.33;;
11439;SDS011;5776;51.814;4.510;2023-02-26T01:30:26;5.90;;;1.37;;
11439;SDS011;5776;51.814;4.510;2023-02-26T01:35:31;7.23;;;1.63;;
11439;SDS011;5776;51.814;4.510;2023-02-26T01:41:29;4.90;;;1.40;;
11439;SDS011;5776;51.814;4.510;2023-02-26T01:49:02;2.97;;;1.10;;
11439;SDS011;5776;51.814;4.510;2023-02-26T01:51:48;2.73;;;1.27;;
11439;SDS011;5776;51.814;4.510;2023-02-26T01:54:18;2.43;;;1.20;;
11439;SDS011;5776;51.814;4.510;2023-02-26T01:56:46;3.80;;;1.17;;
11439;SDS011;5776;51.814;4.510;2023-02-26T01:59:16;2.57;;;1.20;;
11439;SDS011;5776;51.814;4.510;2023-02-26T02:01:49;3.23;;;1.10;;
11439;SDS011;5776;51.814;4.510;2023-02-26T02:04:17;4.27;;;1.20;;
11439;SDS011;5776;51.814;4.510;2023-02-26T02:06:43;4.10;;;1.20;;
11439;SDS011;5776;51.814;4.510;2023-02-26T02:09:11;5.67;;;1.10;;
11439;SDS011;5776;51.814;4.510;2023-02-26T02:11:39;4.43;;;1.20;;
11439;SDS011;5776;51.814;4.510;2023-02-26T02:22:39;4.00;;;0.90;;
11439;SDS011;5776;51.814;4.510;2023-02-26T02:28:08;5.20;;;1.30;;
11439;SDS011;5776;51.814;4.510;2023-02-26T02:31:01;2.40;;;1.03;;
11439;SDS011;5776;51.814;4.510;2023-02-26T02:36:22;2.73;;;1.00;;
11439;SDS011;5776;51.814;4.510;2023-02-26T02:38:57;5.23;;;1.17;;
11439;SDS011;5776;51.814;4.510;2023-02-26T02:41:29;2.87;;;1.00;;
11439;SDS011;5776;51.814;4.510;2023-02-26T02:44:01;2.80;;;1.00;;
11439;SDS011;5776;51.814;4.510;2023-02-26T02:46:31;3.27;;;0.80;;
11439;SDS011;5776;51.814;4.510;2023-02-26T02:49:06;5.03;;;1.00;;
11439;SDS011;5776;51.814;4.510;2023-02-26T02:51:40;3.13;;;0.93;;
11439;SDS011;5776;51.814;4.510;2023-02-26T02:59:47;3.47;;;0.90;;
11439;SDS011;5776;51.814;4.510;2023-02-26T03:05:17;4.87;;;0.80;;
11439;SDS011;5776;51.814;4.510;2023-02-26T03:07:46;6.80;;;1.50;;
11439;SDS011;5776;51.814;4.510;2023-02-26T03:10:17;3.70;;;1.37;;
11439;SDS011;5776;51.814;4.510;2023-02-26T03:12:43;2.87;;;0.70;;
11439;SDS011;5776;51.814;4.510;2023-02-26T03:15:09;3.67;;;0.73;;
11439;SDS011;5776;51.814;4.510;2023-02-26T03:20:57;2.23;;;0.83;;
11439;SDS011;5776;51.814;4.510;2023-02-26T03:23:33;3.50;;;0.80;;
11439;SDS011;5776;51.814;4.510;2023-02-26T03:26:09;2.10;;;0.87;;
11439;SDS011;5776;51.814;4.510;2023-02-26T03:28:45;3.43;;;1.17;;
11439;SDS011;5776;51.814;4.510;2023-02-26T03:31:36;1.80;;;0.80;;
11439;SDS011;5776;51.814;4.510;2023-02-26T03:34:27;6.20;;;1.00;;
11439;SDS011;5776;51.814;4.510;2023-02-26T03:40:03;1.60;;;0.70;;
11439;SDS011;5776;51.814;4.510;2023-02-26T03:42:39;3.23;;;0.77;;
11439;SDS011;5776;51.814;4.510;2023-02-26T03:45:13;3.67;;;0.90;;
11439;SDS011;5776;51.814;4.510;2023-02-26T03:47:43;4.37;;;0.80;;
11439;SDS011;5776;51.814;4.510;2023-02-26T03:50:16;3.33;;;0.90;;
11439;SDS011;5776;51.814;4.510;2023-02-26T03:52:48;1.60;;;0.70;;
11439;SDS011;5776;51.814;4.510;2023-02-26T03:55:18;3.80;;;0.80;;
11439;SDS011;5776;51.814;4.510;2023-02-26T03:57:50;3.60;;;1.10;;
11439;SDS011;5776;51.814;4.510;2023-02-26T04:00:16;3.83;;;1.00;;
11439;SDS011;5776;51.814;4.510;2023-02-26T04:02:46;3.83;;;1.10;;
11439;SDS011;5776;51.814;4.510;2023-02-26T04:05:21;2.83;;;0.80;;
11439;SDS011;5776;51.814;4.510;2023-02-26T04:07:53;3.43;;;0.70;;
11439;SDS011;5776;51.814;4.510;2023-02-26T04:10:26;4.70;;;0.90;;
11439;SDS011;5776;51.814;4.510;2023-02-26T04:12:59;3.83;;;0.97;;
11439;SDS011;5776;51.814;4.510;2023-02-26T04:15:26;4.10;;;0.73;;
11439;SDS011;5776;51.814;4.510;2023-02-26T04:17:53;3.43;;;0.80;;
11439;SDS011;5776;51.814;4.510;2023-02-26T04:20:19;2.87;;;0.90;;
11439;SDS011;5776;51.814;4.510;2023-02-26T04:22:45;3.67;;;0.90;;
11439;SDS011;5776;51.814;4.510;2023-02-26T04:25:11;5.03;;;1.27;;
11439;SDS011;5776;51.814;4.510;2023-02-26T04:27:36;5.83;;;1.00;;
11439;SDS011;5776;51.814;4.510;2023-02-26T04:30:02;2.50;;;0.90;;
11439;SDS011;5776;51.814;4.510;2023-02-26T04:32:28;3.67;;;1.00;;
11439;SDS011;5776;51.814;4.510;2023-02-26T04:34:54;5.87;;;1.20;;
11439;SDS011;5776;51.814;4.510;2023-02-26T04:37:20;3.90;;;1.00;;
11439;SDS011;5776;51.814;4.510;2023-02-26T04:39:46;4.10;;;1.30;;
11439;SDS011;5776;51.814;4.510;2023-02-26T04:42:12;4.30;;;1.00;;
11439;SDS011;5776;51.814;4.510;2023-02-26T04:44:37;3.30;;;1.20;;
11439;SDS011;5776;51.814;4.510;2023-02-26T04:47:03;3.97;;;0.90;;
11439;SDS011;5776;51.814;4.510;2023-02-26T04:49:29;6.13;;;1.00;;
11439;SDS011;5776;51.814;4.510;2023-02-26T04:51:56;4.20;;;0.90;;
11439;SDS011;5776;51.814;4.510;2023-02-26T04:54:21;5.40;;;1.20;;
11439;SDS011;5776;51.814;4.510;2023-02-26T04:56:47;3.60;;;0.90;;
11439;SDS011;5776;51.814;4.510;2023-02-26T04:59:13;2.33;;;0.87;;
11439;SDS011;5776;51.814;4.510;2023-02-26T05:01:39;4.57;;;1.00;;
11439;SDS011;5776;51.814;4.510;2023-02-26T05:04:05;2.03;;;0.80;;
11439;SDS011;5776;51.814;4.510;2023-02-26T05:06:31;2.03;;;0.70;;
11439;SDS011;5776;51.814;4.510;2023-02-26T05:08:57;4.47;;;0.90;;
11439;SDS011;5776;51.814;4.510;2023-02-26T05:11:23;5.93;;;1.00;;
11439;SDS011;5776;51.814;4.510;2023-02-26T05:13:49;4.73;;;0.80;;
11439;SDS011;5776;51.814;4.510;2023-02-26T05:16:14;6.30;;;0.93;;
11439;SDS011;5776;51.814;4.510;2023-02-26T05:18:40;3.63;;;0.93;;
11439;SDS011;5776;51.814;4.510;2023-02-26T05:21:06;3.97;;;0.93;;
11439;SDS011;5776;51.814;4.510;2023-02-26T05:23:32;2.60;;;1.20;;
11439;SDS011;5776;51.814;4.510;2023-02-26T05:25:58;4.60;;;1.00;;
11439;SDS011;5776;51.814;4.510;2023-02-26T05:28:24;3.40;;;0.83;;
11439;SDS011;5776;51.814;4.510;2023-02-26T05:30:51;6.00;;;0.90;;
11439;SDS011;5776;51.814;4.510;2023-02-26T05:33:17;5.60;;;1.13;;
11439;SDS011;5776;51.814;4.510;2023-02-26T05:35:44;3.47;;;0.80;;
11439;SDS011;5776;51.814;4.510;2023-02-26T05:38:11;1.57;;;0.80;;
11439;SDS011;5776;51.814;4.510;2023-02-26T05:40:37;3.87;;;0.87;;
11439;SDS011;5776;51.814;4.510;2023-02-26T05:43:03;2.03;;;0.90;;
11439;SDS011;5776;51.814;4.510;2023-02-26T05:45:28;3.37;;;1.10;;
11439;SDS011;5776;51.814;4.510;2023-02-26T05:47:54;2.27;;;0.63;;
11439;SDS011;5776;51.814;4.510;2023-02-26T05:50:20;1.50;;;0.80;;
11439;SDS011;5776;51.814;4.510;2023-02-26T05:52:46;5.57;;;0.70;;
11439;SDS011;5776;51.814;4.510;2023-02-26T05:55:12;2.13;;;0.77;;
11439;SDS011;5776;51.814;4.510;2023-02-26T05:57:38;2.50;;;0.80;;
11439;SDS011;5776;51.814;4.510;2023-02-26T06:00:05;3.30;;;0.70;;
11439;SDS011;5776;51.814;4.510;2023-02-26T06:02:32;1.23;;;0.60;;
11439;SDS011;5776;51.814;4.510;2023-02-26T06:04:58;1.90;;;0.70;;
11439;SDS011;5776;51.814;4.510;2023-02-26T06:07:24;3.03;;;0.60;;
11439;SDS011;5776;51.814;4.510;2023-02-26T06:09:50;0.63;;;0.40;;
11439;SDS011;5776;51.814;4.510;2023-02-26T06:12:16;2.10;;;0.70;;
11439;SDS011;5776;51.814;4.510;2023-02-26T06:14:42;2.50;;;0.70;;
11439;SDS011;5776;51.814;4.510;2023-02-26T06:17:07;3.93;;;0.73;;
11439;SDS011;5776;51.814;4.510;2023-02-26T06:19:33;1.17;;;0.60;;
11439;SDS011;5776;51.814;4.510;2023-02-26T06:21:59;1.70;;;0.70;;
11439;SDS011;5776;51.814;4.510;2023-02-26T06:24:25;0.73;;;0.47;;
11439;SDS011;5776;51.814;4.510;2023-02-26T06:26:51;5.30;;;1.00;;
11439;SDS011;5776;51.814;4.510;2023-02-26T06:29:17;2.70;;;0.90;;
11439;SDS011;5776;51.814;4.510;2023-02-26T06:31:45;1.97;;;0.77;;
11439;SDS011;5776;51.814;4.510;2023-02-26T06:34:11;3.37;;;0.80;;
11439;SDS011;5776;51.814;4.510;2023-02-26T06:36:37;3.50;;;1.10;;
11439;SDS011;5776;51.814;4.510;2023-02-26T06:39:03;2.20;;;0.73;;
11439;SDS011;5776;51.814;4.510;2023-02-26T06:41:29;1.17;;;0.70;;
11439;SDS011;5776;51.814;4.510;2023-02-26T06:43:55;4.37;;;1.00;;
11439;SDS011;5776;51.814;4.510;2023-02-26T06:46:21;2.47;;;0.70;;
11439;SDS011;5776;51.814;4.510;2023-02-26T06:48:47;3.30;;;0.80;;
11439;SDS011;5776;51.814;4.510;2023-02-26T06:51:13;1.93;;;0.53;;
11439;SDS011;5776;51.814;4.510;2023-02-26T06:53:39;2.30;;;0.80;;
11439;SDS011;5776;51.814;4.510;2023-02-26T06:56:05;3.47;;;0.77;;
11439;SDS011;5776;51.814;4.510;2023-02-26T06:58:30;2.73;;;1.00;;
11439;SDS011;5776;51.814;4.510;2023-02-26T07:00:56;2.47;;;0.80;;
11439;SDS011;5776;51.814;4.510;2023-02-26T07:03:22;4.83;;;0.70;;
11439;SDS011;5776;51.814;4.510;2023-02-26T07:05:48;2.30;;;0.90;;
11439;SDS011;5776;51.814;4.510;2023-02-26T07:08:14;2.50;;;0.70;;
11439;SDS011;5776;51.814;4.510;2023-02-26T07:10:41;2.17;;;0.80;;
11439;SDS011;5776;51.814;4.510;2023-02-26T07:13:09;1.10;;;0.63;;
11439;SDS011;5776;51.814;4.510;2023-02-26T07:15:35;0.97;;;0.50;;
11439;SDS011;5776;51.814;4.510;2023-02-26T07:18:01;3.23;;;0.60;;
11439;SDS011;5776;51.814;4.510;2023-02-26T07:20:27;1.27;;;0.73;;
11439;SDS011;5776;51.814;4.510;2023-02-26T07:22:54;4.63;;;0.70;;
11439;SDS011;5776;51.814;4.510;2023-02-26T07:25:19;1.20;;;0.70;;
11439;SDS011;5776;51.814;4.510;2023-02-26T07:27:46;1.47;;;0.60;;
11439;SDS011;5776;51.814;4.510;2023-02-26T07:30:12;5.67;;;0.80;;
11439;SDS011;5776;51.814;4.510;2023-02-26T07:32:39;0.70;;;0.50;;
11439;SDS011;5776;51.814;4.510;2023-02-26T07:35:05;2.30;;;0.73;;
11439;SDS011;5776;51.814;4.510;2023-02-26T07:37:31;1.57;;;0.53;;
11439;SDS011;5776;51.814;4.510;2023-02-26T07:39:57;2.97;;;0.70;;
11439;SDS011;5776;51.814;4.510;2023-02-26T07:42:23;1.47;;;0.80;;
11439;SDS011;5776;51.814;4.510;2023-02-26T07:44:49;4.23;;;0.67;;
11439;SDS011;5776;51.814;4.510;2023-02-26T07:47:15;2.60;;;0.80;;
11439;SDS011;5776;51.814;4.510;2023-02-26T07:49:42;3.20;;;0.90;;
11439;SDS011;5776;51.814;4.510;2023-02-26T07:52:08;2.30;;;0.73;;
11439;SDS011;5776;51.814;4.510;2023-02-26T07:54:34;2.50;;;0.80;;
11439;SDS011;5776;51.814;4.510;2023-02-26T07:57:01;3.73;;;0.87;;
11439;SDS011;5776;51.814;4.510;2023-02-26T07:59:27;2.27;;;0.60;;
11439;SDS011;5776;51.814;4.510;2023-02-26T08:01:53;2.97;;;0.70;;
11439;SDS011;5776;51.814;4.510;2023-02-26T08:04:19;1.97;;;0.90;;
11439;SDS011;5776;51.814;4.510;2023-02-26T08:06:46;2.77;;;0.80;;
11439;SDS011;5776;51.814;4.510;2023-02-26T08:09:12;2.00;;;0.70;;
11439;SDS011;5776;51.814;4.510;2023-02-26T08:11:38;2.70;;;0.90;;
11439;SDS011;5776;51.814;4.510;2023-02-26T08:14:05;2.47;;;0.80;;
11439;SDS011;5776;51.814;4.510;2023-02-26T08:16:32;2.20;;;0.63;;
11439;SDS011;5776;51.814;4.510;2023-02-26T08:18:58;8.23;;;0.77;;
11439;SDS011;5776;51.814;4.510;2023-02-26T08:21:24;3.50;;;0.73;;
11439;SDS011;5776;51.814;4.510;2023-02-26T08:23:50;5.17;;;0.87;;
11439;SDS011;5776;51.814;4.510;2023-02-26T08:26:17;10.53;;;1.10;;
11439;SDS011;5776;51.814;4.510;2023-02-26T08:28:43;4.97;;;1.00;;
11439;SDS011;5776;51.814;4.510;2023-02-26T08:31:11;3.33;;;0.70;;
11439;SDS011;5776;51.814;4.510;2023-02-26T08:33:38;4.53;;;0.73;;
11439;SDS011;5776;51.814;4.510;2023-02-26T08:36:04;6.73;;;0.93;;
11439;SDS011;5776;51.814;4.510;2023-02-26T08:38:30;7.53;;;0.87;;
11439;SDS011;5776;51.814;4.510;2023-02-26T08:40:57;2.10;;;1.00;;
11439;SDS011;5776;51.814;4.510;2023-02-26T08:43:22;1.00;;;0.67;;
11439;SDS011;5776;51.814;4.510;2023-02-26T08:45:50;3.17;;;0.80;;
11439;SDS011;5776;51.814;4.510;2023-02-26T08:48:18;3.00;;;0.70;;
11439;SDS011;5776;51.814;4.510;2023-02-26T08:50:44;2.70;;;0.60;;
11439;SDS011;5776;51.814;4.510;2023-02-26T08:53:11;2.80;;;0.73;;
11439;SDS011;5776;51.814;4.510;2023-02-26T08:55:36;3.90;;;0.60;;
11439;SDS011;5776;51.814;4.510;2023-02-26T08:58:02;4.17;;;1.10;;
11439;SDS011;5776;51.814;4.510;2023-02-26T09:00:28;1.53;;;0.80;;
11439;SDS011;5776;51.814;4.510;2023-02-26T09:02:54;6.53;;;0.70;;
11439;SDS011;5776;51.814;4.510;2023-02-26T09:05:21;4.17;;;0.70;;
11439;SDS011;5776;51.814;4.510;2023-02-26T09:07:47;0.60;;;0.30;;
11439;SDS011;5776;51.814;4.510;2023-02-26T09:10:13;0.93;;;0.50;;
11439;SDS011;5776;51.814;4.510;2023-02-26T09:12:39;4.93;;;0.80;;
11439;SDS011;5776;51.814;4.510;2023-02-26T09:15:06;2.87;;;0.70;;
11439;SDS011;5776;51.814;4.510;2023-02-26T09:17:33;2.80;;;0.70;;
11439;SDS011;5776;51.814;4.510;2023-02-26T09:20:00;3.87;;;0.73;;
11439;SDS011;5776;51.814;4.510;2023-02-26T09:22:25;1.23;;;0.40;;
11439;SDS011;5776;51.814;4.510;2023-02-26T09:24:51;1.03;;;0.60;;
11439;SDS011;5776;51.814;4.510;2023-02-26T09:27:17;2.40;;;0.70;;
11439;SDS011;5776;51.814;4.510;2023-02-26T09:29:43;2.03;;;0.30;;
11439;SDS011;5776;51.814;4.510;2023-02-26T09:32:09;4.90;;;0.67;;
11439;SDS011;5776;51.814;4.510;2023-02-26T09:34:36;0.30;;;0.30;;
11439;SDS011;5776;51.814;4.510;2023-02-26T09:37:06;0.90;;;0.50;;
11439;SDS011;5776;51.814;4.510;2023-02-26T09:39:33;0.60;;;0.50;;
11439;SDS011;5776;51.814;4.510;2023-02-26T09:42:02;2.60;;;0.50;;
11439;SDS011;5776;51.814;4.510;2023-02-26T09:44:50;1.63;;;0.60;;
11439;SDS011;5776;51.814;4.510;2023-02-26T09:47:28;0.87;;;0.47;;
11439;SDS011;5776;51.814;4.510;2023-02-26T09:55:26;0.57;;;0.50;;
11439;SDS011;5776;51.814;4.510;2023-02-26T09:57:54;0.73;;;0.30;;
11439;SDS011;5776;51.814;4.510;2023-02-26T10:11:24;0.30;;;0.30;;
11439;SDS011;5776;51.814;4.510;2023-02-26T10:14:09;2.00;;;0.50;;
11439;SDS011;5776;51.814;4.510;2023-02-26T10:16:41;0.43;;;0.40;;
11439;SDS011;5776;51.814;4.510;2023-02-26T10:19:18;1.23;;;0.40;;
11439;SDS011;5776;51.814;4.510;2023-02-26T10:21:49;1.03;;;0.40;;
11439;SDS011;5776;51.814;4.510;2023-02-26T10:25:02;0.63;;;0.50;;
11439;SDS011;5776;51.814;4.510;2023-02-26T10:27:17;4.43;;;0.60;;
11439;SDS011;5776;51.814;4.510;2023-02-26T10:34:56;1.40;;;0.50;;
11439;SDS011;5776;51.814;4.510;2023-02-26T10:40:11;0.77;;;0.50;;
11439;SDS011;5776;51.814;4.510;2023-02-26T10:42:50;0.93;;;0.40;;
11439;SDS011;5776;51.814;4.510;2023-02-26T10:45:41;1.67;;;0.77;;
11439;SDS011;5776;51.814;4.510;2023-02-26T10:50:59;2.80;;;0.50;;
11439;SDS011;5776;51.814;4.510;2023-02-26T10:53:29;1.27;;;0.50;;
11439;SDS011;5776;51.814;4.510;2023-02-26T10:56:04;4.33;;;0.50;;
11439;SDS011;5776;51.814;4.510;2023-02-26T10:58:34;2.77;;;0.70;;
11439;SDS011;5776;51.814;4.510;2023-02-26T11:01:00;2.37;;;0.63;;
11439;SDS011;5776;51.814;4.510;2023-02-26T11:03:33;0.87;;;0.60;;
11439;SDS011;5776;51.814;4.510;2023-02-26T11:06:03;1.63;;;0.50;;
11439;SDS011;5776;51.814;4.510;2023-02-26T11:08:35;0.50;;;0.40;;
11439;SDS011;5776;51.814;4.510;2023-02-26T11:11:05;2.33;;;0.97;;
11439;SDS011;5776;51.814;4.510;2023-02-26T11:13:32;0.87;;;0.40;;
11439;SDS011;5776;51.814;4.510;2023-02-26T11:16:01;1.03;;;0.57;;
11439;SDS011;5776;51.814;4.510;2023-02-26T11:18:38;2.50;;;0.60;;
11439;SDS011;5776;51.814;4.510;2023-02-26T11:21:07;1.37;;;0.73;;
11439;SDS011;5776;51.814;4.510;2023-02-26T11:23:39;1.60;;;0.70;;
11439;SDS011;5776;51.814;4.510;2023-02-26T11:26:13;1.27;;;0.40;;
11439;SDS011;5776;51.814;4.510;2023-02-26T11:28:46;0.87;;;0.60;;
11439;SDS011;5776;51.814;4.510;2023-02-26T11:31:15;4.13;;;1.23;;
11439;SDS011;5776;51.814;4.510;2023-02-26T11:33:48;2.50;;;0.63;;
11439;SDS011;5776;51.814;4.510;2023-02-26T11:36:16;1.50;;;0.57;;
11439;SDS011;5776;51.814;4.510;2023-02-26T11:38:44;0.83;;;0.60;;
11439;SDS011;5776;51.814;4.510;2023-02-26T11:41:11;2.27;;;1.00;;
11439;SDS011;5776;51.814;4.510;2023-02-26T11:43:42;7.87;;;2.50;;
11439;SDS011;5776;51.814;4.510;2023-02-26T11:46:09;1.43;;;0.80;;
11439;SDS011;5776;51.814;4.510;2023-02-26T11:48:41;6.93;;;1.40;;
11439;SDS011;5776;51.814;4.510;2023-02-26T11:51:12;5.57;;;2.53;;
11439;SDS011;5776;51.814;4.510;2023-02-26T11:53:50;7.17;;;2.03;;
11439;SDS011;5776;51.814;4.510;2023-02-26T11:56:37;6.40;;;1.77;;
11439;SDS011;5776;51.814;4.510;2023-02-26T11:59:18;4.73;;;1.37;;
11439;SDS011;5776;51.814;4.510;2023-02-26T12:01:46;3.30;;;1.13;;
11439;SDS011;5776;51.814;4.510;2023-02-26T12:04:13;3.70;;;1.50;;
11439;SDS011;5776;51.814;4.510;2023-02-26T12:06:42;2.93;;;1.03;;
11439;SDS011;5776;51.814;4.510;2023-02-26T12:09:10;4.00;;;0.80;;
11439;SDS011;5776;51.814;4.510;2023-02-26T12:16:59;1.43;;;0.67;;
11439;SDS011;5776;51.814;4.510;2023-02-26T12:19:40;5.57;;;0.70;;
11439;SDS011;5776;51.814;4.510;2023-02-26T12:22:19;2.73;;;0.80;;
11439;SDS011;5776;51.814;4.510;2023-02-26T12:25:21;1.73;;;0.90;;
11439;SDS011;5776;51.814;4.510;2023-02-26T12:33:00;1.53;;;0.73;;
11439;SDS011;5776;51.814;4.510;2023-02-26T12:38:48;2.33;;;0.40;;
11439;SDS011;5776;51.814;4.510;2023-02-26T12:43:57;1.63;;;0.50;;
11439;SDS011;5776;51.814;4.510;2023-02-26T13:08:57;3.60;;;0.67;;
11439;SDS011;5776;51.814;4.510;2023-02-26T13:11:39;1.30;;;0.57;;
11439;SDS011;5776;51.814;4.510;2023-02-26T13:25:37;3.13;;;0.80;;
11439;SDS011;5776;51.814;4.510;2023-02-26T13:28:25;2.93;;;0.67;;
11439;SDS011;5776;51.814;4.510;2023-02-26T13:31:04;1.40;;;0.50;;
11439;SDS011;5776;51.814;4.510;2023-02-26T13:33:41;6.30;;;2.00;;
11439;SDS011;5776;51.814;4.510;2023-02-26T13:36:08;0.93;;;0.50;;
11439;SDS011;5776;51.814;4.510;2023-02-26T13:41:26;0.93;;;0.43;;
11439;SDS011;5776;51.814;4.510;2023-02-26T13:49:41;1.53;;;0.30;;
11439;SDS011;5776;51.814;4.510;2023-02-26T13:52:27;2.33;;;0.70;;
11439;SDS011;5776;51.814;4.510;2023-02-26T13:54:55;1.37;;;0.50;;
11439;SDS011;5776;51.814;4.510;2023-02-26T13:57:25;0.57;;;0.37;;
11439;SDS011;5776;51.814;4.510;2023-02-26T14:00:26;3.20;;;0.90;;
11439;SDS011;5776;51.814;4.510;2023-02-26T14:02:57;2.33;;;0.60;;
11439;SDS011;5776;51.814;4.510;2023-02-26T14:08:24;1.20;;;0.60;;
11439;SDS011;5776;51.814;4.510;2023-02-26T14:10:58;2.03;;;0.53;;
11439;SDS011;5776;51.814;4.510;2023-02-26T14:13:38;8.40;;;0.80;;
11439;SDS011;5776;51.814;4.510;2023-02-26T14:16:21;2.30;;;0.67;;
11439;SDS011;5776;51.814;4.510;2023-02-26T14:18:49;1.17;;;0.80;;
11439;SDS011;5776;51.814;4.510;2023-02-26T14:23:54;4.53;;;0.80;;
11439;SDS011;5776;51.814;4.510;2023-02-26T14:26:22;1.20;;;0.53;;
11439;SDS011;5776;51.814;4.510;2023-02-26T14:31:23;2.53;;;0.90;;
11439;SDS011;5776;51.814;4.510;2023-02-26T14:36:35;0.60;;;0.40;;
11439;SDS011;5776;51.814;4.510;2023-02-26T14:39:07;3.03;;;0.87;;
11439;SDS011;5776;51.814;4.510;2023-02-26T14:41:46;2.97;;;0.50;;
11439;SDS011;5776;51.814;4.510;2023-02-26T14:44:21;0.90;;;0.40;;
11439;SDS011;5776;51.814;4.510;2023-02-26T14:46:50;2.60;;;0.70;;
11439;SDS011;5776;51.814;4.510;2023-02-26T14:49:21;4.37;;;0.90;;
11439;SDS011;5776;51.814;4.510;2023-02-26T14:54:52;2.03;;;0.40;;
11439;SDS011;5776;51.814;4.510;2023-02-26T15:00:30;1.27;;;0.50;;
11439;SDS011;5776;51.814;4.510;2023-02-26T15:11:44;2.57;;;0.70;;
11439;SDS011;5776;51.814;4.510;2023-02-26T15:14:29;2.87;;;0.60;;
11439;SDS011;5776;51.814;4.510;2023-02-26T15:22:36;3.33;;;0.60;;
11439;SDS011;5776;51.814;4.510;2023-02-26T15:25:13;1.40;;;0.60;;
11439;SDS011;5776;51.814;4.510;2023-02-26T15:27:58;2.57;;;0.60;;
11439;SDS011;5776;51.814;4.510;2023-02-26T15:30:25;3.07;;;0.70;;
11439;SDS011;5776;51.814;4.510;2023-02-26T15:32:57;2.80;;;0.60;;
11439;SDS011;5776;51.814;4.510;2023-02-26T15:35:26;3.93;;;0.90;;
11439;SDS011;5776;51.814;4.510;2023-02-26T15:37:55;2.83;;;0.80;;
11439;SDS011;5776;51.814;4.510;2023-02-26T15:40:27;2.10;;;0.60;;
11439;SDS011;5776;51.814;4.510;2023-02-26T15:42:56;4.10;;;0.83;;
11439;SDS011;5776;51.814;4.510;2023-02-26T15:45:33;4.20;;;0.60;;
11439;SDS011;5776;51.814;4.510;2023-02-26T15:48:06;1.97;;;0.67;;
11439;SDS011;5776;51.814;4.510;2023-02-26T15:50:40;3.03;;;0.70;;
11439;SDS011;5776;51.814;4.510;2023-02-26T15:53:15;3.53;;;0.60;;
11439;SDS011;5776;51.814;4.510;2023-02-26T15:55:48;3.83;;;0.63;;
11439;SDS011;5776;51.814;4.510;2023-02-26T15:58:20;1.07;;;0.60;;
11439;SDS011;5776;51.814;4.510;2023-02-26T16:00:55;1.43;;;0.50;;
11439;SDS011;5776;51.814;4.510;2023-02-26T16:03:34;0.90;;;0.67;;
11439;SDS011;5776;51.814;4.510;2023-02-26T16:06:03;3.10;;;0.80;;
11439;SDS011;5776;51.814;4.510;2023-02-26T16:08:31;0.77;;;0.50;;
11439;SDS011;5776;51.814;4.510;2023-02-26T16:10:57;1.83;;;0.60;;
11439;SDS011;5776;51.814;4.510;2023-02-26T16:13:28;3.50;;;0.60;;
11439;SDS011;5776;51.814;4.510;2023-02-26T16:16:06;2.77;;;0.50;;
11439;SDS011;5776;51.814;4.510;2023-02-26T16:18:38;2.03;;;0.60;;
11439;SDS011;5776;51.814;4.510;2023-02-26T16:21:06;5.90;;;0.93;;
11439;SDS011;5776;51.814;4.510;2023-02-26T16:23:44;3.47;;;0.80;;
11439;SDS011;5776;51.814;4.510;2023-02-26T16:26:37;3.70;;;0.70;;
11439;SDS011;5776;51.814;4.510;2023-02-26T16:29:10;2.30;;;0.60;;
11439;SDS011;5776;51.814;4.510;2023-02-26T16:31:40;1.33;;;0.60;;
11439;SDS011;5776;51.814;4.510;2023-02-26T16:36:52;1.00;;;0.50;;
11439;SDS011;5776;51.814;4.510;2023-02-26T16:39:23;1.57;;;0.53;;
11439;SDS011;5776;51.814;4.510;2023-02-26T16:42:00;1.63;;;0.67;;
11439;SDS011;5776;51.814;4.510;2023-02-26T16:44:37;2.27;;;0.63;;
11439;SDS011;5776;51.814;4.510;2023-02-26T16:47:10;4.60;;;1.10;;
11439;SDS011;5776;51.814;4.510;2023-02-26T16:49:36;2.70;;;0.70;;
11439;SDS011;5776;51.814;4.510;2023-02-26T16:52:04;3.87;;;0.60;;
11439;SDS011;5776;51.814;4.510;2023-02-26T16:54:32;4.57;;;0.73;;
11439;SDS011;5776;51.814;4.510;2023-02-26T16:57:11;2.23;;;0.80;;
11439;SDS011;5776;51.814;4.510;2023-02-26T16:59:42;3.57;;;1.00;;
11439;SDS011;5776;51.814;4.510;2023-02-26T17:02:17;4.50;;;1.27;;
11439;SDS011;5776;51.814;4.510;2023-02-26T17:04:49;7.60;;;2.87;;
11439;SDS011;5776;51.814;4.510;2023-02-26T17:09:50;18.20;;;9.80;;
11439;SDS011;5776;51.814;4.510;2023-02-26T17:12:21;11.87;;;6.13;;
11439;SDS011;5776;51.814;4.510;2023-02-26T17:14:57;21.97;;;11.30;;
11439;SDS011;5776;51.814;4.510;2023-02-26T17:17:25;7.33;;;2.87;;
11439;SDS011;5776;51.814;4.510;2023-02-26T17:19:52;4.53;;;1.90;;
11439;SDS011;5776;51.814;4.510;2023-02-26T17:22:20;14.87;;;7.80;;
11439;SDS011;5776;51.814;4.510;2023-02-26T17:24:51;4.07;;;2.80;;
11439;SDS011;5776;51.814;4.510;2023-02-26T17:27:23;6.60;;;1.33;;
11439;SDS011;5776;51.814;4.510;2023-02-26T17:29:55;3.87;;;1.87;;
11439;SDS011;5776;51.814;4.510;2023-02-26T17:32:23;14.40;;;8.10;;
11439;SDS011;5776;51.814;4.510;2023-02-26T17:34:51;10.30;;;4.23;;
11439;SDS011;5776;51.814;4.510;2023-02-26T17:37:18;4.60;;;2.00;;
11439;SDS011;5776;51.814;4.510;2023-02-26T17:39:44;7.33;;;3.27;;
11439;SDS011;5776;51.814;4.510;2023-02-26T17:42:14;9.37;;;4.67;;
11439;SDS011;5776;51.814;4.510;2023-02-26T17:44:48;6.03;;;1.93;;
11439;SDS011;5776;51.814;4.510;2023-02-26T17:47:16;5.67;;;1.93;;
11439;SDS011;5776;51.814;4.510;2023-02-26T17:49:46;7.13;;;1.60;;
11439;SDS011;5776;51.814;4.510;2023-02-26T17:52:13;3.23;;;1.20;;
11439;SDS011;5776;51.814;4.510;2023-02-26T17:54:40;2.93;;;1.80;;
11439;SDS011;5776;51.814;4.510;2023-02-26T17:57:06;4.83;;;2.37;;
11439;SDS011;5776;51.814;4.510;2023-02-26T17:59:35;4.53;;;1.83;;
11439;SDS011;5776;51.814;4.510;2023-02-26T18:02:07;6.53;;;2.30;;
11439;SDS011;5776;51.814;4.510;2023-02-26T18:04:40;7.83;;;1.90;;
11439;SDS011;5776;51.814;4.510;2023-02-26T18:07:07;4.50;;;1.90;;
11439;SDS011;5776;51.814;4.510;2023-02-26T18:09:35;5.60;;;1.60;;
11439;SDS011;5776;51.814;4.510;2023-02-26T18:12:01;3.90;;;1.40;;
11439;SDS011;5776;51.814;4.510;2023-02-26T18:14:26;6.57;;;2.43;;